Time;durP1;ratioP1;P1;durP2;ratioP2;P2;SDS_P1;SDS_P2;PMS_P1;PMS_P2;Temp;Humidity;BMP_temperature;BMP_pressure;BME280_temperature;BME280_humidity;BME280_pressure;Samples;Min_cycle;Max_cycle;Signal;HPM_P1;HPM_P2
2022/07/04 00:00:28;;;;;;;0.73;0.35;;;14.30;99.90;;;;;;5053351;28;20064;-73
2022/07/04 00:02:54;;;;;;;0.25;0.20;;;14.30;99.90;;;;;;5059485;28;20075;-73
2022/07/04 00:05:21;;;;;;;0.98;0.52;;;14.20;99.90;;;;;;5062733;28;20089;-73
2022/07/04 00:07:49;;;;;;;0.77;0.43;;;14.20;99.90;;;;;;5058937;28;20815;-73
2022/07/04 00:10:20;;;;;;;0.77;0.57;;;14.10;99.90;;;;;;5063842;28;20036;-73
2022/07/04 00:12:46;;;;;;;0.20;0.10;;;14.10;99.90;;;;;;5048796;28;20040;-73
2022/07/04 00:15:13;;;;;;;0.73;0.40;;;14.10;99.90;;;;;;5078932;28;20047;-73
2022/07/04 00:17:38;;;;;;;1.05;0.50;;;14.10;99.90;;;;;;5058275;28;20144;-73
2022/07/04 00:20:05;;;;;;;1.25;0.68;;;14.10;99.90;;;;;;5060617;28;20550;-73
2022/07/04 00:22:31;;;;;;;0.60;0.32;;;14.10;99.90;;;;;;5060360;28;20041;-73
2022/07/04 00:24:57;;;;;;;1.02;0.50;;;14.10;99.90;;;;;;5064376;28;20047;-73
2022/07/04 00:27:23;;;;;;;0.30;0.20;;;14.10;99.90;;;;;;5057194;28;20143;-73
2022/07/04 00:29:48;;;;;;;0.40;0.30;;;14.10;99.90;;;;;;5060460;28;20043;-73
2022/07/04 00:32:14;;;;;;;0.32;0.30;;;14.00;99.90;;;;;;5062980;28;20043;-73
2022/07/04 00:34:40;;;;;;;0.60;0.40;;;14.00;99.90;;;;;;5055993;28;20940;-73
2022/07/04 00:37:05;;;;;;;0.82;0.40;;;14.00;99.90;;;;;;5061766;28;20036;-73
2022/07/04 00:39:31;;;;;;;0.45;0.30;;;14.00;99.90;;;;;;5060757;28;20036;-73
2022/07/04 00:41:57;;;;;;;0.68;0.30;;;14.00;99.90;;;;;;5062885;28;20115;-73
2022/07/04 00:44:22;;;;;;;0.65;0.40;;;14.00;99.90;;;;;;5060524;28;20152;-73
2022/07/04 00:46:48;;;;;;;0.35;0.30;;;13.90;99.90;;;;;;5064973;28;20155;-73
2022/07/04 00:49:16;;;;;;;0.20;0.20;;;13.90;99.90;;;;;;5057639;28;20417;-73
2022/07/04 00:51:43;;;;;;;0.47;0.20;;;13.90;99.90;;;;;;5060351;28;20068;-73
2022/07/04 00:54:12;;;;;;;0.45;0.10;;;13.90;99.90;;;;;;5058935;28;20044;-73
2022/07/04 00:56:39;;;;;;;0.35;0.22;;;13.90;99.90;;;;;;5062471;28;20135;-73
2022/07/04 00:59:05;;;;;;;1.25;0.43;;;13.90;99.90;;;;;;5062139;28;20047;-73
2022/07/04 01:01:31;;;;;;;0.45;0.40;;;13.80;99.90;;;;;;5061893;28;20101;-73
2022/07/04 01:03:57;;;;;;;0.90;0.52;;;13.80;99.90;;;;;;5060323;28;20997;-73
2022/07/04 01:06:23;;;;;;;0.90;0.38;;;13.80;99.90;;;;;;5060783;28;20834;-73
2022/07/04 01:08:48;;;;;;;2.30;0.40;;;13.80;99.90;;;;;;5061686;28;20044;-73
2022/07/04 01:11:15;;;;;;;1.05;0.60;;;13.70;99.90;;;;;;5061574;28;20452;-73
2022/07/04 01:13:42;;;;;;;0.60;0.40;;;13.80;99.90;;;;;;5062313;28;20762;-73
2022/07/04 01:16:08;;;;;;;1.38;0.50;;;13.70;99.90;;;;;;5063840;28;20032;-73
2022/07/04 01:18:35;;;;;;;2.15;0.63;;;13.70;99.90;;;;;;5056171;28;20133;-73
2022/07/04 01:21:00;;;;;;;0.90;0.52;;;13.70;99.90;;;;;;5059636;28;20044;-73
2022/07/04 01:23:26;;;;;;;0.82;0.52;;;13.60;99.90;;;;;;5062536;28;20093;-73
2022/07/04 01:25:52;;;;;;;1.08;0.47;;;13.60;99.90;;;;;;5055237;28;20064;-73
2022/07/04 01:28:21;;;;;;;0.70;0.40;;;13.60;99.90;;;;;;5061108;28;20051;-73
2022/07/04 01:30:47;;;;;;;0.77;0.50;;;13.50;99.90;;;;;;5036547;28;20040;-73
2022/07/04 01:33:13;;;;;;;2.00;0.75;;;13.40;99.90;;;;;;5058264;28;20040;-73
2022/07/04 01:35:39;;;;;;;1.85;1.08;;;13.40;99.90;;;;;;5059940;28;20040;-73
2022/07/04 01:38:05;;;;;;;1.83;0.93;;;13.40;99.90;;;;;;5062646;28;20450;-73
2022/07/04 01:40:30;;;;;;;1.80;0.73;;;13.40;99.90;;;;;;5060074;28;20139;-73
2022/07/04 01:42:58;;;;;;;1.98;0.88;;;13.40;99.90;;;;;;5049448;28;20044;-73
2022/07/04 01:45:24;;;;;;;1.70;0.90;;;13.30;99.90;;;;;;5058933;28;20119;-73
2022/07/04 01:47:50;;;;;;;2.08;1.00;;;13.30;99.90;;;;;;5057656;28;20037;-73
2022/07/04 01:50:16;;;;;;;2.22;1.20;;;13.30;99.90;;;;;;5062058;28;20119;-73
2022/07/04 01:52:42;;;;;;;2.80;1.20;;;13.30;99.90;;;;;;5059412;28;20116;-73
2022/07/04 01:55:09;;;;;;;2.58;1.33;;;13.30;99.90;;;;;;5058573;28;20036;-73
2022/07/04 01:57:35;;;;;;;2.42;1.17;;;13.30;99.90;;;;;;5058465;28;20032;-73
2022/07/04 02:02:44;;;;;;;2.28;0.98;;;13.30;99.90;;;;;;5062462;28;20075;-73
2022/07/04 02:05:10;;;;;;;2.22;1.10;;;13.30;99.90;;;;;;5059231;28;20313;-73
2022/07/04 02:07:35;;;;;;;2.08;1.20;;;13.30;99.90;;;;;;5061050;28;20033;-73
2022/07/04 02:10:02;;;;;;;3.60;1.55;;;13.20;99.90;;;;;;5057658;28;20044;-73
2022/07/04 02:15:12;;;;;;;1.98;1.27;;;13.20;99.90;;;;;;5063631;28;20143;-73
2022/07/04 02:17:37;;;;;;;2.03;1.15;;;13.20;99.90;;;;;;5055716;28;20080;-73
2022/07/04 02:20:04;;;;;;;1.90;1.00;;;13.20;99.90;;;;;;5059980;28;20089;-73
2022/07/04 02:22:30;;;;;;;2.28;1.10;;;13.20;99.90;;;;;;5060510;28;20033;-73
2022/07/04 02:24:56;;;;;;;2.67;1.35;;;13.20;99.90;;;;;;5029229;28;20063;-73
2022/07/04 02:27:22;;;;;;;4.75;1.80;;;13.20;99.90;;;;;;5051438;28;20085;-73
2022/07/04 02:29:48;;;;;;;2.35;1.40;;;13.20;99.90;;;;;;5058284;28;20097;-73
2022/07/04 02:32:13;;;;;;;3.67;1.52;;;13.20;99.90;;;;;;5056999;28;20028;-73
2022/07/04 02:34:39;;;;;;;2.35;1.30;;;13.20;99.90;;;;;;5058606;28;20490;-73
2022/07/04 02:37:05;;;;;;;2.00;1.25;;;13.20;99.90;;;;;;5058454;28;20051;-73
2022/07/04 02:39:30;;;;;;;2.42;1.20;;;13.20;99.90;;;;;;5053259;28;20044;-74
2022/07/04 02:41:56;;;;;;;2.15;1.33;;;13.20;99.90;;;;;;5055968;28;20119;-73
2022/07/04 02:44:21;;;;;;;2.80;1.63;;;13.20;99.90;;;;;;5061577;28;20041;-73
2022/07/04 02:46:47;;;;;;;2.97;1.50;;;13.20;99.90;;;;;;5056728;28;20081;-73
2022/07/04 02:49:13;;;;;;;2.58;1.40;;;13.20;99.90;;;;;;5061602;28;20951;-73
2022/07/04 02:51:38;;;;;;;2.33;1.40;;;13.20;99.90;;;;;;5051368;28;20123;-73
2022/07/04 02:54:04;;;;;;;5.57;2.05;;;13.20;99.90;;;;;;5056583;28;20036;-73
2022/07/04 02:56:30;;;;;;;3.53;1.70;;;13.20;99.90;;;;;;5058126;28;20537;-73
2022/07/04 02:58:55;;;;;;;3.70;1.50;;;13.20;99.90;;;;;;5058954;28;20036;-73
2022/07/04 03:01:21;;;;;;;3.15;1.65;;;13.20;99.90;;;;;;5060337;28;20032;-73
2022/07/04 03:03:47;;;;;;;2.97;1.85;;;13.20;99.90;;;;;;5051518;28;20597;-73
2022/07/04 03:06:13;;;;;;;2.30;1.35;;;13.30;99.90;;;;;;5058880;28;20494;-73
2022/07/04 03:08:39;;;;;;;3.00;1.58;;;13.30;99.90;;;;;;5054828;28;20044;-73
2022/07/04 03:11:05;;;;;;;2.38;1.20;;;13.30;99.90;;;;;;5059422;28;20036;-73
2022/07/04 03:13:31;;;;;;;2.53;1.67;;;13.30;99.90;;;;;;5055111;28;20097;-73
2022/07/04 03:15:57;;;;;;;2.45;1.50;;;13.20;99.90;;;;;;5057958;28;20037;-74
2022/07/04 03:18:23;;;;;;;2.58;1.48;;;13.20;99.90;;;;;;5056972;28;20186;-73
2022/07/04 03:20:49;;;;;;;2.55;1.30;;;13.20;99.90;;;;;;5060233;28;20186;-73
2022/07/04 03:23:15;;;;;;;3.03;1.52;;;13.20;99.90;;;;;;5061480;28;20037;-73
2022/07/04 03:25:41;;;;;;;3.78;1.60;;;13.20;99.90;;;;;;5059402;28;20454;-73
2022/07/04 03:28:07;;;;;;;2.63;1.52;;;13.30;99.90;;;;;;5051409;28;20087;-73
2022/07/04 03:30:33;;;;;;;5.68;1.80;;;13.30;99.90;;;;;;5058639;28;20760;-73
2022/07/04 03:32:58;;;;;;;3.38;1.52;;;13.20;99.90;;;;;;5057159;28;20414;-73
2022/07/04 03:35:24;;;;;;;2.47;1.42;;;13.20;99.90;;;;;;5062354;28;20072;-73
2022/07/04 03:37:51;;;;;;;3.10;1.50;;;13.20;99.90;;;;;;5059058;28;20024;-73
2022/07/04 03:40:17;;;;;;;3.95;1.35;;;13.20;99.90;;;;;;5053443;28;20041;-73
2022/07/04 03:42:43;;;;;;;2.75;1.58;;;13.20;99.90;;;;;;5057253;28;20063;-73
2022/07/04 03:45:09;;;;;;;5.80;1.98;;;13.20;99.90;;;;;;5058179;28;20128;-73
2022/07/04 03:47:34;;;;;;;3.33;1.80;;;13.20;99.90;;;;;;5058534;28;20052;-73
2022/07/04 03:50:00;;;;;;;3.65;1.73;;;13.20;99.90;;;;;;5057602;28;20033;-73
2022/07/04 03:52:26;;;;;;;2.80;1.52;;;13.20;99.90;;;;;;5060161;28;20029;-73
2022/07/04 03:54:51;;;;;;;3.20;2.15;;;13.30;99.90;;;;;;5054203;28;20516;-73
2022/07/04 03:57:17;;;;;;;2.97;1.80;;;13.20;99.90;;;;;;5053325;28;20037;-73
2022/07/04 03:59:42;;;;;;;3.20;1.73;;;13.30;99.90;;;;;;5057572;28;20099;-73
2022/07/04 04:02:08;;;;;;;4.60;1.95;;;13.30;99.90;;;;;;5055588;28;20056;-73
2022/07/04 04:07:18;;;;;;;4.93;1.77;;;13.40;99.90;;;;;;5059204;28;20044;-73
2022/07/04 04:09:43;;;;;;;2.45;1.48;;;13.30;99.90;;;;;;5062006;28;20033;-73
2022/07/04 04:12:09;;;;;;;3.42;2.13;;;13.40;99.90;;;;;;5059290;28;20486;-73
2022/07/04 04:14:35;;;;;;;3.88;2.00;;;13.40;99.90;;;;;;5061948;28;20059;-73
2022/07/04 04:17:00;;;;;;;3.65;1.80;;;13.40;99.90;;;;;;5058767;28;20033;-73
2022/07/04 04:19:26;;;;;;;2.67;1.70;;;13.50;99.90;;;;;;5059848;28;20052;-73
2022/07/04 04:21:52;;;;;;;3.65;1.88;;;13.50;99.90;;;;;;5063400;28;20048;-73
2022/07/04 04:24:17;;;;;;;4.20;2.08;;;13.50;99.90;;;;;;5061673;28;20079;-73
2022/07/04 04:26:43;;;;;;;3.53;2.15;;;13.60;99.90;;;;;;5060732;28;20040;-73
2022/07/04 04:29:08;;;;;;;3.33;1.73;;;13.60;99.90;;;;;;5059812;28;20182;-73
2022/07/04 04:31:34;;;;;;;4.40;2.42;;;13.70;99.90;;;;;;5059719;28;20375;-73
2022/07/04 04:34:00;;;;;;;5.55;2.08;;;13.70;99.90;;;;;;5062085;28;20161;-73
2022/07/04 04:36:25;;;;;;;4.78;2.80;;;13.70;99.90;;;;;;5060811;28;20040;-73
2022/07/04 04:38:51;;;;;;;6.72;2.17;;;13.70;99.90;;;;;;5062463;28;20090;-73
2022/07/04 04:41:17;;;;;;;4.57;2.03;;;13.80;99.90;;;;;;5049537;28;20025;-73
2022/07/04 04:43:43;;;;;;;3.92;1.95;;;13.80;99.90;;;;;;5063220;28;20025;-73
2022/07/04 04:46:09;;;;;;;3.92;2.25;;;13.90;99.90;;;;;;5056302;28;20126;-73
2022/07/04 04:48:35;;;;;;;3.83;2.35;;;13.90;99.90;;;;;;5061504;28;20705;-73
2022/07/04 04:51:00;;;;;;;4.47;2.50;;;13.90;99.90;;;;;;5059444;28;20032;-73
2022/07/04 04:53:26;;;;;;;3.70;2.13;;;14.00;99.90;;;;;;5060319;28;20107;-73
2022/07/04 04:55:55;;;;;;;4.13;2.30;;;14.00;99.90;;;;;;5059521;28;20041;-73
2022/07/04 04:58:21;;;;;;;4.47;2.60;;;14.10;99.90;;;;;;5064377;28;20110;-73
2022/07/04 05:00:50;;;;;;;4.47;2.97;;;14.10;99.90;;;;;;5058748;28;20037;-73
2022/07/04 05:03:16;;;;;;;5.22;2.85;;;14.10;99.90;;;;;;5062403;28;20044;-73
2022/07/04 05:05:42;;;;;;;5.18;2.55;;;14.20;99.90;;;;;;5077426;28;20167;-73
2022/07/04 05:08:08;;;;;;;5.28;3.22;;;14.20;99.90;;;;;;5066559;28;20418;-73
2022/07/04 05:10:34;;;;;;;4.57;3.13;;;14.20;99.90;;;;;;5061255;28;20037;-73
2022/07/04 05:13:00;;;;;;;4.78;2.58;;;14.20;99.90;;;;;;5060086;28;20032;-73
2022/07/04 05:15:25;;;;;;;8.10;3.08;;;14.20;99.90;;;;;;5055142;28;20051;-73
2022/07/04 05:17:51;;;;;;;5.07;2.80;;;14.30;99.90;;;;;;5062826;28;20061;-73
2022/07/04 05:20:17;;;;;;;4.22;2.50;;;14.30;99.90;;;;;;5052886;28;20056;-73
2022/07/04 05:22:42;;;;;;;4.07;2.60;;;14.30;99.90;;;;;;5058078;28;20046;-73
2022/07/04 05:25:08;;;;;;;5.25;2.85;;;14.30;99.90;;;;;;5058714;28;20045;-73
2022/07/04 05:27:35;;;;;;;4.30;2.63;;;14.30;99.90;;;;;;5059261;28;20056;-73
2022/07/04 05:30:00;;;;;;;5.15;2.70;;;14.30;99.90;;;;;;5063018;28;20044;-73
2022/07/04 05:32:26;;;;;;;4.30;2.83;;;14.40;99.90;;;;;;5054823;28;20041;-73
2022/07/04 05:34:52;;;;;;;5.38;2.78;;;14.40;99.90;;;;;;5060710;28;20036;-73
2022/07/04 05:37:18;;;;;;;4.18;2.33;;;14.40;99.90;;;;;;5060013;28;20032;-81
2022/07/04 05:39:43;;;;;;;5.85;2.65;;;14.40;99.90;;;;;;5064134;28;20474;-74
2022/07/04 05:42:09;;;;;;;5.13;2.63;;;14.50;99.90;;;;;;5050210;28;20032;-74
2022/07/04 05:44:35;;;;;;;4.95;2.17;;;14.50;99.90;;;;;;5057401;28;20041;-74
2022/07/04 05:47:00;;;;;;;3.55;2.15;;;14.50;99.90;;;;;;5056189;28;20486;-73
2022/07/04 05:49:26;;;;;;;4.78;2.70;;;14.50;99.90;;;;;;5056284;28;20110;-74
2022/07/04 05:51:52;;;;;;;3.85;2.10;;;14.60;99.90;;;;;;5050884;28;20051;-74
2022/07/04 05:54:17;;;;;;;5.30;2.88;;;14.60;99.90;;;;;;5061549;28;20045;-73
2022/07/04 05:56:43;;;;;;;4.20;2.78;;;14.60;99.90;;;;;;5063854;28;20073;-74
2022/07/04 05:59:09;;;;;;;4.10;2.08;;;14.70;99.90;;;;;;5061822;28;20182;-73
2022/07/04 06:01:36;;;;;;;3.75;2.00;;;14.70;99.90;;;;;;5069379;28;20120;-73
2022/07/04 06:04:05;;;;;;;4.03;2.50;;;14.70;99.90;;;;;;5063760;28;20210;-73
2022/07/04 06:06:31;;;;;;;3.47;2.08;;;14.80;99.90;;;;;;5059670;28;20040;-73
2022/07/04 06:08:57;;;;;;;4.60;2.67;;;14.80;99.90;;;;;;5060482;28;20086;-73
2022/07/04 06:11:23;;;;;;;3.08;2.17;;;14.80;99.90;;;;;;5066147;28;20044;-76
2022/07/04 06:13:49;;;;;;;3.45;1.83;;;14.90;99.90;;;;;;5063509;28;20503;-73
2022/07/04 06:16:15;;;;;;;5.03;2.60;;;15.00;99.90;;;;;;5063778;28;20098;-73
2022/07/04 06:18:41;;;;;;;4.22;2.08;;;15.10;99.90;;;;;;5064908;28;20101;-73
2022/07/04 06:21:07;;;;;;;4.10;2.22;;;15.10;99.90;;;;;;5058101;28;20072;-75
2022/07/04 06:23:33;;;;;;;3.40;2.15;;;15.20;99.90;;;;;;5065038;28;20513;-73
2022/07/04 06:25:58;;;;;;;3.75;2.35;;;15.30;99.90;;;;;;5058782;28;20051;-73
2022/07/04 06:28:24;;;;;;;2.75;1.80;;;15.30;99.90;;;;;;5072294;28;20027;-73
2022/07/04 06:30:49;;;;;;;4.45;1.98;;;15.30;99.90;;;;;;5072026;28;20558;-73
2022/07/04 06:33:15;;;;;;;3.28;2.05;;;15.40;99.90;;;;;;5080182;28;20035;-73
2022/07/04 06:35:56;;;;;;;3.47;1.92;;;15.50;99.90;;;;;;5068484;28;20525;-73
2022/07/04 06:38:26;;;;;;;2.60;1.70;;;16.00;99.90;;;;;;5075763;28;20043;-73
2022/07/04 06:40:54;;;;;;;5.60;2.53;;;17.10;99.90;;;;;;5070681;28;20077;-73
2022/07/04 06:43:19;;;;;;;4.13;2.20;;;18.30;99.90;;;;;;5074512;28;20575;-73
2022/07/04 06:45:45;;;;;;;3.10;1.95;;;19.10;99.90;;;;;;5074206;28;20107;-73
2022/07/04 06:48:11;;;;;;;5.75;2.30;;;19.80;99.90;;;;;;5078997;28;20070;-73
2022/07/04 06:50:37;;;;;;;2.90;1.73;;;20.20;99.90;;;;;;5076077;28;20128;-73
2022/07/04 06:53:04;;;;;;;3.58;1.33;;;20.60;99.90;;;;;;5068471;28;20091;-73
2022/07/04 06:55:30;;;;;;;3.60;1.73;;;21.00;99.90;;;;;;5063245;28;20051;-73
2022/07/04 06:57:56;;;;;;;2.38;1.50;;;20.80;99.90;;;;;;5074184;28;20040;-73
2022/07/04 07:00:22;;;;;;;2.50;1.60;;;20.30;99.90;;;;;;5072350;28;20072;-73
2022/07/04 07:02:48;;;;;;;2.65;1.55;;;20.00;99.90;;;;;;5071285;28;20033;-73
2022/07/04 07:05:13;;;;;;;2.55;1.40;;;19.60;99.90;;;;;;5076164;28;20041;-73
2022/07/04 07:07:39;;;;;;;5.00;1.33;;;19.20;99.90;;;;;;5065293;28;20029;-73
2022/07/04 07:10:06;;;;;;;5.15;1.25;;;18.90;99.90;;;;;;5061042;28;20041;-73
2022/07/04 07:12:33;;;;;;;3.80;1.48;;;18.70;99.90;;;;;;5058241;28;20167;-73
2022/07/04 07:14:59;;;;;;;5.65;1.60;;;18.40;99.90;;;;;;5039414;28;20064;-73
2022/07/04 07:17:25;;;;;;;2.38;1.30;;;18.20;99.90;;;;;;5060372;28;20048;-73
2022/07/04 07:19:50;;;;;;;2.38;1.40;;;18.00;99.90;;;;;;5058157;28;20052;-72
2022/07/04 07:22:16;;;;;;;3.70;1.83;;;18.00;99.90;;;;;;5055379;28;20046;-73
2022/07/04 07:24:42;;;;;;;2.97;1.60;;;17.90;99.90;;;;;;5060346;28;20042;-72
2022/07/04 07:27:08;;;;;;;3.15;1.75;;;17.90;99.90;;;;;;5059615;28;20696;-73
2022/07/04 07:29:34;;;;;;;5.53;2.00;;;17.90;99.90;;;;;;5059867;28;20044;-72
2022/07/04 07:32:00;;;;;;;2.55;1.38;;;17.90;99.90;;;;;;5071700;28;20536;-72
2022/07/04 07:34:26;;;;;;;5.43;1.95;;;18.00;99.90;;;;;;5063088;28;20123;-73
2022/07/04 07:36:52;;;;;;;4.93;1.73;;;17.90;99.90;;;;;;5075063;28;20042;-73
2022/07/04 07:39:18;;;;;;;4.72;1.60;;;17.90;99.90;;;;;;5061734;28;20386;-73
2022/07/04 07:41:44;;;;;;;3.70;1.42;;;17.80;99.90;;;;;;5069006;28;20036;-73
2022/07/04 07:44:09;;;;;;;2.75;1.55;;;17.80;99.90;;;;;;5064826;28;20025;-73
2022/07/04 07:46:35;;;;;;;3.80;2.00;;;17.80;99.90;;;;;;5079332;28;20032;-73
2022/07/04 07:49:00;;;;;;;2.60;1.55;;;17.90;99.90;;;;;;5077117;28;20414;-73
2022/07/04 07:51:26;;;;;;;4.70;2.33;;;17.90;99.90;;;;;;5080083;28;20372;-73
2022/07/04 07:53:52;;;;;;;2.35;1.33;;;18.00;99.90;;;;;;5074467;28;20053;-73
2022/07/04 07:56:18;;;;;;;1.83;1.02;;;18.00;99.90;;;;;;5080615;28;20032;-73
2022/07/04 07:58:43;;;;;;;2.33;1.40;;;17.90;99.90;;;;;;5075891;28;20032;-73
2022/07/04 08:01:09;;;;;;;3.10;1.45;;;17.80;99.90;;;;;;5079505;28;20032;-73
2022/07/04 08:06:19;;;;;;;2.35;0.80;;;17.90;99.90;;;;;;5061480;28;20048;-73
2022/07/04 08:08:44;;;;;;;2.10;1.00;;;18.00;99.90;;;;;;5063863;28;20055;-73
2022/07/04 08:11:11;;;;;;;3.90;1.55;;;18.00;99.90;;;;;;5072352;28;20491;-73
2022/07/04 08:13:38;;;;;;;4.45;1.30;;;18.00;99.90;;;;;;5074905;28;20028;-73
2022/07/04 08:16:05;;;;;;;2.50;1.15;;;17.90;99.90;;;;;;5076182;28;20040;-73
2022/07/04 08:18:31;;;;;;;6.28;1.30;;;17.80;99.90;;;;;;5066725;28;20049;-73
2022/07/04 08:20:57;;;;;;;4.15;1.52;;;17.80;99.90;;;;;;5061682;28;20094;-73
2022/07/04 08:23:23;;;;;;;3.25;1.40;;;17.80;99.90;;;;;;5073136;28;20526;-73
2022/07/04 08:25:49;;;;;;;2.42;1.40;;;17.90;99.90;;;;;;5070805;28;20044;-73
2022/07/04 08:28:14;;;;;;;2.60;1.10;;;17.90;99.90;;;;;;5075461;28;20553;-73
2022/07/04 08:30:40;;;;;;;2.88;1.17;;;18.00;99.90;;;;;;5075508;28;20321;-73
2022/07/04 08:33:06;;;;;;;2.28;1.10;;;18.10;99.90;;;;;;5070324;28;20035;-74
2022/07/04 08:35:33;;;;;;;1.95;1.17;;;18.20;99.90;;;;;;5075343;28;20036;-74
2022/07/04 08:37:58;;;;;;;2.22;1.02;;;18.20;99.90;;;;;;5064269;28;20063;-73
2022/07/04 08:40:29;;;;;;;1.85;0.82;;;18.40;99.90;;;;;;5062747;28;20846;-73
2022/07/04 08:42:55;;;;;;;2.72;1.00;;;18.40;99.90;;;;;;5067652;28;20721;-73
2022/07/04 08:45:27;;;;;;;2.05;0.90;;;18.50;99.90;;;;;;5074329;28;20036;-73
2022/07/04 08:48:00;;;;;;;0.90;0.63;;;18.50;99.90;;;;;;5068159;28;20115;-73
2022/07/04 08:50:33;;;;;;;1.02;0.60;;;18.60;99.90;;;;;;5078589;28;20063;-73
2022/07/04 08:53:12;;;;;;;2.75;0.80;;;18.60;99.90;;;;;;5072646;28;20040;-73
2022/07/04 08:58:30;;;;;;;4.15;1.17;;;18.80;99.90;;;;;;5073613;28;20074;-73
2022/07/04 09:01:01;;;;;;;1.70;0.88;;;18.70;99.90;;;;;;5080802;28;20032;-74
2022/07/04 09:03:28;;;;;;;1.58;0.60;;;18.80;99.90;;;;;;5068749;28;20040;-73
2022/07/04 09:05:55;;;;;;;0.93;0.70;;;18.90;99.90;;;;;;5070789;28;20045;-73
2022/07/04 09:08:21;;;;;;;0.90;0.60;;;18.90;99.90;;;;;;5065854;28;20033;-73
2022/07/04 09:10:48;;;;;;;2.03;0.73;;;19.00;99.90;;;;;;5064935;28;20112;-73
2022/07/04 09:13:14;;;;;;;0.73;0.45;;;19.10;99.90;;;;;;5071860;28;20028;-73
2022/07/04 09:15:45;;;;;;;0.77;0.50;;;19.30;99.90;;;;;;5076342;28;20056;-73
2022/07/04 09:18:28;;;;;;;1.73;0.70;;;19.30;99.90;;;;;;5052498;28;20079;-66
2022/07/04 09:20:56;;;;;;;1.08;0.52;;;19.30;99.90;;;;;;5074958;28;20123;-65
2022/07/04 09:23:25;;;;;;;3.88;1.02;;;19.30;99.90;;;;;;5054655;28;20064;-74
2022/07/04 09:26:18;;;;;;;1.23;0.52;;;19.20;99.90;;;;;;5072115;28;20536;-73
2022/07/04 09:28:56;;;;;;;1.35;0.70;;;19.10;99.90;;;;;;5071106;28;20042;-73
2022/07/04 09:31:28;;;;;;;1.55;0.63;;;18.90;99.90;;;;;;5065964;28;20040;-73
2022/07/04 09:34:05;;;;;;;1.08;0.57;;;18.80;99.90;;;;;;5071708;28;20032;-75
2022/07/04 09:36:38;;;;;;;0.85;0.38;;;18.60;99.90;;;;;;5069446;28;20046;-73
2022/07/04 09:39:14;;;;;;;1.98;0.73;;;18.50;99.90;;;;;;5076513;28;20028;-73
2022/07/04 09:41:57;;;;;;;2.35;0.60;;;18.40;99.90;;;;;;5067987;28;20048;-73
2022/07/04 09:44:25;;;;;;;2.63;0.40;;;18.50;99.90;;;;;;5068109;28;20048;-74
2022/07/04 09:46:51;;;;;;;1.75;0.50;;;18.50;99.90;;;;;;5055372;28;20048;-74
2022/07/04 09:49:17;;;;;;;1.13;0.57;;;18.80;99.90;;;;;;5058964;28;20035;-73
2022/07/04 09:51:48;;;;;;;1.23;0.50;;;19.00;99.90;;;;;;5070498;28;20490;-74
2022/07/04 09:54:16;;;;;;;0.73;0.40;;;19.10;99.90;;;;;;5071550;28;20044;-74
2022/07/04 09:56:44;;;;;;;0.47;0.30;;;19.10;99.90;;;;;;5077405;28;20404;-74
2022/07/04 09:59:10;;;;;;;0.98;0.47;;;19.10;99.90;;;;;;5070244;28;20071;-73
2022/07/04 10:01:36;;;;;;;4.05;0.70;;;19.00;99.90;;;;;;5074480;28;20074;-73
2022/07/04 10:04:05;;;;;;;0.98;0.65;;;19.10;99.90;;;;;;5071530;28;20051;-74
2022/07/04 10:06:32;;;;;;;2.83;0.93;;;19.10;99.90;;;;;;5068709;28;20441;-74
2022/07/04 10:09:08;;;;;;;0.88;0.43;;;19.20;99.90;;;;;;5074414;28;20032;-74
2022/07/04 10:11:34;;;;;;;0.80;0.40;;;19.30;99.90;;;;;;5078375;28;20111;-74
2022/07/04 10:14:01;;;;;;;3.05;0.40;;;19.50;99.90;;;;;;5068668;28;20120;-73
2022/07/04 10:16:27;;;;;;;1.52;0.40;;;19.40;99.90;;;;;;5073690;28;20043;-74
2022/07/04 10:18:54;;;;;;;1.90;0.38;;;19.40;99.90;;;;;;5075730;28;20434;-74
2022/07/04 10:21:20;;;;;;;1.02;0.57;;;19.30;99.90;;;;;;5073777;28;20055;-73
2022/07/04 10:23:49;;;;;;;0.93;0.50;;;19.40;99.90;;;;;;5072307;28;20040;-74
2022/07/04 10:26:19;;;;;;;0.77;0.40;;;19.40;99.90;;;;;;5078773;28;20065;-73
2022/07/04 10:28:47;;;;;;;1.02;0.65;;;19.50;99.90;;;;;;5075054;28;20491;-73
2022/07/04 10:31:13;;;;;;;1.38;0.60;;;19.60;99.90;;;;;;5073302;28;20510;-74
2022/07/04 10:33:40;;;;;;;1.20;0.43;;;19.50;99.90;;;;;;5056699;28;20576;-74
2022/07/04 10:36:29;;;;;;;1.13;0.60;;;19.60;99.90;;;;;;5078771;28;20036;-74
2022/07/04 10:38:58;;;;;;;0.82;0.40;;;19.70;97.80;;;;;;5071506;28;20125;-74
2022/07/04 10:41:25;;;;;;;1.23;0.50;;;19.70;99.90;;;;;;5066443;28;20189;-73
2022/07/04 10:44:02;;;;;;;1.33;0.73;;;19.70;99.90;;;;;;5073717;28;20162;-72
2022/07/04 10:46:28;;;;;;;1.23;0.40;;;19.70;99.90;;;;;;5075223;28;20078;-73
2022/07/04 10:48:58;;;;;;;0.55;0.40;;;19.70;99.90;;;;;;5065830;28;21517;-73
2022/07/04 10:51:35;;;;;;;0.70;0.43;;;19.70;99.90;;;;;;5064497;28;20520;-73
2022/07/04 10:54:21;;;;;;;0.77;0.40;;;19.80;99.90;;;;;;5044762;28;20067;-74
2022/07/04 10:56:55;;;;;;;0.52;0.40;;;19.70;99.90;;;;;;5064037;28;20028;-72
2022/07/04 10:59:29;;;;;;;1.08;0.60;;;19.70;99.70;;;;;;5067715;28;20043;-72
2022/07/04 11:02:17;;;;;;;1.85;0.70;;;19.60;99.60;;;;;;5066465;28;20043;-73
2022/07/04 11:05:06;;;;;;;1.35;0.68;;;19.60;99.50;;;;;;5071699;28;20053;-73
2022/07/04 11:07:40;;;;;;;2.17;0.55;;;19.60;99.80;;;;;;5073110;28;20050;-73
2022/07/04 11:12:59;;;;;;;0.85;0.47;;;19.60;99.90;;;;;;5076443;28;20044;-73
2022/07/04 11:15:24;;;;;;;0.82;0.60;;;19.60;99.10;;;;;;5066688;28;20040;-73
2022/07/04 11:17:51;;;;;;;0.95;0.60;;;19.60;99.90;;;;;;5070667;28;21735;-73
2022/07/04 11:20:21;;;;;;;1.77;0.60;;;19.60;99.90;;;;;;5076925;28;20049;-73
2022/07/04 11:22:46;;;;;;;0.88;0.50;;;19.70;99.90;;;;;;5066542;28;20039;-72
2022/07/04 11:25:12;;;;;;;1.00;0.52;;;19.70;99.90;;;;;;5070569;28;20036;-72
2022/07/04 11:27:39;;;;;;;1.17;0.50;;;19.80;99.90;;;;;;5069522;28;20037;-73
2022/07/04 11:30:06;;;;;;;0.98;0.70;;;19.80;99.90;;;;;;5075179;28;20040;-73
2022/07/04 11:32:34;;;;;;;0.73;0.52;;;19.80;99.10;;;;;;5074399;28;20524;-73
2022/07/04 11:35:00;;;;;;;1.23;0.70;;;19.90;99.20;;;;;;5072085;28;20615;-73
2022/07/04 11:37:26;;;;;;;1.02;0.50;;;20.00;99.40;;;;;;5076509;28;20048;-73
2022/07/04 11:45:49;;;;;;;1.58;0.38;;;19.70;95.00;;;;;;5070398;28;20049;-73
2022/07/04 11:48:25;;;;;;;1.42;0.80;;;19.60;98.20;;;;;;5059058;28;20413;-73
2022/07/04 11:50:51;;;;;;;0.47;0.47;;;19.60;97.60;;;;;;5056799;28;20048;-73
2022/07/04 11:53:17;;;;;;;0.63;0.50;;;19.50;98.80;;;;;;5068985;28;20596;-73
2022/07/04 11:55:57;;;;;;;0.70;0.50;;;19.70;98.70;;;;;;5076855;28;20048;-73
2022/07/04 11:58:23;;;;;;;1.60;0.70;;;19.80;96.60;;;;;;5062083;28;20043;-73
2022/07/04 12:00:49;;;;;;;0.85;0.60;;;19.80;97.60;;;;;;5075510;28;20071;-73
2022/07/04 12:03:15;;;;;;;1.67;0.55;;;19.90;97.20;;;;;;5070313;28;20499;-73
2022/07/04 12:05:43;;;;;;;0.75;0.32;;;19.90;96.80;;;;;;5078526;28;20045;-73
2022/07/04 12:08:09;;;;;;;0.40;0.38;;;19.90;96.40;;;;;;5068548;28;20490;-73
2022/07/04 12:10:36;;;;;;;0.73;0.50;;;19.90;96.10;;;;;;5069185;28;20037;-73
2022/07/04 12:13:14;;;;;;;0.45;0.38;;;19.80;96.40;;;;;;5074671;28;20130;-73
2022/07/04 12:15:45;;;;;;;0.45;0.30;;;19.80;94.20;;;;;;5065809;28;20043;-73
2022/07/04 12:18:31;;;;;;;0.68;0.30;;;19.80;95.70;;;;;;5078491;28;20052;-73
2022/07/04 12:21:22;;;;;;;0.47;0.30;;;19.90;93.60;;;;;;5074134;28;20067;-73
2022/07/04 12:23:52;;;;;;;1.08;0.43;;;20.00;94.20;;;;;;5066063;28;20121;-73
2022/07/04 12:26:18;;;;;;;1.23;0.50;;;20.00;94.50;;;;;;5073463;28;20404;-73
2022/07/04 12:28:43;;;;;;;1.65;0.70;;;20.10;95.00;;;;;;5076052;28;20043;-73
2022/07/04 12:31:10;;;;;;;1.02;0.55;;;20.00;95.40;;;;;;5070597;28;20044;-73
2022/07/04 12:33:36;;;;;;;0.75;0.30;;;19.90;95.40;;;;;;5064997;28;20404;-73
2022/07/04 12:36:06;;;;;;;0.60;0.30;;;19.90;95.10;;;;;;5069125;28;20045;-73
2022/07/04 12:38:41;;;;;;;0.43;0.30;;;19.90;95.40;;;;;;5068648;28;20036;-73
2022/07/04 12:41:11;;;;;;;0.40;0.30;;;20.00;94.80;;;;;;5069877;28;20039;-73
2022/07/04 12:43:42;;;;;;;0.80;0.40;;;20.00;94.40;;;;;;5068361;28;20085;-73
2022/07/04 12:46:30;;;;;;;0.40;0.30;;;20.10;93.90;;;;;;5075596;28;20090;-73
2022/07/04 12:48:57;;;;;;;0.85;0.30;;;20.20;94.20;;;;;;5076080;28;20409;-73
2022/07/04 12:51:26;;;;;;;2.85;0.50;;;20.40;94.50;;;;;;5070314;28;20047;-73
2022/07/04 12:53:54;;;;;;;0.40;0.40;;;20.40;94.40;;;;;;5067656;28;20040;-73
2022/07/04 12:56:33;;;;;;;0.95;0.40;;;20.40;93.90;;;;;;5079557;28;20107;-73
2022/07/04 12:59:01;;;;;;;0.40;0.20;;;20.30;93.30;;;;;;5074409;28;20039;-73
2022/07/04 13:01:27;;;;;;;0.45;0.30;;;20.20;94.60;;;;;;5073397;28;20320;-73
2022/07/04 13:03:53;;;;;;;0.40;0.28;;;20.20;94.20;;;;;;5066300;28;20526;-73
2022/07/04 13:06:19;;;;;;;0.35;0.30;;;20.20;94.30;;;;;;5070386;28;20559;-72
2022/07/04 13:08:45;;;;;;;0.30;0.30;;;20.30;93.90;;;;;;5070965;28;20489;-73
2022/07/04 13:13:55;;;;;;;0.90;0.30;;;20.40;93.20;;;;;;5066073;28;20186;-74